METAR Data
IDs: Format: Raw Decoded Include TAF

Data at: 0639 UTC 01 Aug 2021

EDHI 010620Z AUTO 24007KT 9999 // BKN010/// BKN019/// OVC039/// 16/14 Q1006